createdAt,value
2022-11-24T00:02:15.031Z,95935.47
2022-11-24T00:04:45.845Z,95942.41
2022-11-24T00:07:16.602Z,95940.75
2022-11-24T00:09:47.086Z,95940.75
2022-11-24T00:12:20.199Z,95946.88
2022-11-24T00:14:50.661Z,95947.69
2022-11-24T00:17:21.118Z,95943.22
2022-11-24T00:19:51.526Z,95933.00
2022-11-24T00:22:21.954Z,95937.50
2022-11-24T00:24:52.500Z,95936.31
2022-11-24T00:27:25.585Z,95944.41
2022-11-24T00:29:56.098Z,95934.53
2022-11-24T00:32:26.529Z,95942.28
2022-11-24T00:34:57.056Z,95936.53
2022-11-24T00:37:27.653Z,95931.41
2022-11-24T00:39:58.150Z,95938.88
2022-11-24T00:42:31.272Z,95933.91
2022-11-24T00:45:12.948Z,95929.16
2022-11-24T00:47:44.163Z,95936.41
2022-11-24T00:50:14.677Z,95933.16
2022-11-24T00:52:45.098Z,95931.66
2022-11-24T00:55:15.625Z,95935.31
2022-11-24T00:57:48.747Z,95933.00
2022-11-24T01:00:20.884Z,95939.44
2022-11-24T01:02:51.332Z,95939.63
2022-11-24T01:05:21.884Z,95940.78
2022-11-24T01:07:52.412Z,95948.03
2022-11-24T01:10:23.000Z,95944.09
2022-11-24T01:12:56.047Z,95947.56
2022-11-24T01:15:26.719Z,95940.97
2022-11-24T01:17:57.185Z,95937.69
2022-11-24T01:20:27.774Z,95940.66
2022-11-24T01:22:58.215Z,95945.09
2022-11-24T01:25:28.783Z,95938.34
2022-11-24T01:28:01.888Z,95943.63
2022-11-24T01:30:32.487Z,95942.84
2022-11-24T01:33:03.023Z,95940.34
2022-11-24T01:35:33.635Z,95943.81
2022-11-24T01:38:04.264Z,95938.72
2022-11-24T01:40:34.810Z,95938.72
2022-11-24T01:43:19.265Z,95945.63
2022-11-24T01:45:51.202Z,95943.00
2022-11-24T01:48:27.730Z,95948.28
2022-11-24T01:51:06.843Z,95944.63
2022-11-24T01:53:37.492Z,95943.63
2022-11-24T01:56:09.866Z,95949.91
2022-11-24T01:58:46.115Z,95951.56
2022-11-24T02:01:16.884Z,95946.28
2022-11-24T02:03:50.129Z,95956.19
2022-11-24T02:06:24.401Z,95957.19
2022-11-24T02:09:01.197Z,95952.06
2022-11-24T02:11:36.794Z,95950.44
2022-11-24T02:14:11.102Z,95954.19
2022-11-24T02:16:44.610Z,95960.47
2022-11-24T02:19:21.518Z,95949.44
2022-11-24T02:21:51.980Z,95948.28
2022-11-24T02:24:28.651Z,95947.44
2022-11-24T02:27:01.971Z,95947.44
2022-11-24T02:29:32.638Z,95948.63
2022-11-24T02:32:08.374Z,95940.88
2022-11-24T02:34:38.998Z,95944.66
2022-11-24T02:37:09.635Z,95955.22
2022-11-24T02:39:40.198Z,95949.31
2022-11-24T02:42:16.838Z,95948.63
2022-11-24T02:44:52.226Z,95950.47
2022-11-24T02:47:22.423Z,95945.34
2022-11-24T02:49:53.140Z,95947.34
2022-11-24T02:52:24.007Z,95949.31
2022-11-24T02:54:54.423Z,95943.56
2022-11-24T02:57:28.210Z,95947.34
2022-11-24T02:59:58.874Z,95944.03
2022-11-24T03:02:29.581Z,95941.56
2022-11-24T03:05:00.040Z,95942.72
2022-11-24T03:07:30.638Z,95941.94
2022-11-24T03:10:01.126Z,95953.28
2022-11-24T03:12:34.472Z,95950.66
2022-11-24T03:15:05.464Z,95962.84
2022-11-24T03:17:36.053Z,95952.47
2022-11-24T03:20:06.915Z,95962.19
2022-11-24T03:22:37.452Z,95969.44
2022-11-24T03:25:08.804Z,95960.22
2022-11-24T03:27:41.969Z,95954.28
2022-11-24T03:30:13.250Z,95957.91
2022-11-24T03:32:43.771Z,95959.06
2022-11-24T03:35:14.426Z,95953.13
2022-11-24T03:37:44.979Z,95955.75
2022-11-24T03:40:16.245Z,95963.66
2022-11-24T03:42:49.379Z,95960.22
2022-11-24T03:45:45.031Z,95959.38
2022-11-24T03:48:10.821Z,95962.38
2022-11-24T03:50:41.420Z,95967.66
2022-11-24T03:53:12.080Z,95963.50
2022-11-24T03:55:42.589Z,95971.75
2022-11-24T03:58:15.611Z,95980.13
2022-11-24T04:00:46.183Z,95986.88
2022-11-24T04:03:16.632Z,95997.63
2022-11-24T04:05:47.229Z,95994.31
2022-11-24T04:08:18.489Z,95979.66
2022-11-24T04:10:53.019Z,95991.97
2022-11-24T04:13:25.857Z,96001.72
2022-11-24T04:15:56.771Z,96007.16
2022-11-24T04:18:27.305Z,96003.03
2022-11-24T04:20:57.870Z,96005.00
2022-11-24T04:23:28.842Z,96010.28
2022-11-24T04:25:59.452Z,96011.25
2022-11-24T04:28:32.553Z,96014.03
2022-11-24T04:31:05.504Z,96013.88
2022-11-24T04:33:36.367Z,96014.53
2022-11-24T04:36:07.507Z,96012.91
2022-11-24T04:39:19.652Z,96014.84
2022-11-24T04:41:28.455Z,96011.56
2022-11-24T04:44:01.501Z,96019.47
2022-11-24T04:46:32.410Z,96017.81
2022-11-24T04:49:02.985Z,96023.09
2022-11-24T04:51:33.605Z,96023.41
2022-11-24T04:54:04.000Z,96036.88
2022-11-24T04:56:34.689Z,96039.81
2022-11-24T04:59:08.674Z,96044.59
2022-11-24T05:01:39.409Z,96038.53
2022-11-24T05:04:12.546Z,96045.75
2022-11-24T05:06:43.652Z,96043.13
2022-11-24T05:09:17.965Z,96054.63
2022-11-24T05:11:48.651Z,96055.63
2022-11-24T05:14:21.823Z,96054.78
2022-11-24T05:16:52.353Z,96057.72
2022-11-24T05:19:22.872Z,96054.28
2022-11-24T05:21:54.637Z,96057.88
2022-11-24T05:24:25.351Z,96056.94
2022-11-24T05:26:55.998Z,96057.88
2022-11-24T05:29:29.073Z,96066.78
2022-11-24T05:32:01.694Z,96063.34
2022-11-24T05:34:33.758Z,96070.41
2022-11-24T05:37:05.207Z,96073.34
2022-11-24T05:39:36.375Z,96077.78
2022-11-24T05:42:21.075Z,96081.22
2022-11-24T05:44:54.525Z,96078.75
2022-11-24T05:47:25.852Z,96081.38
2022-11-24T05:49:56.682Z,96076.13
2022-11-24T05:52:27.241Z,96080.44
2022-11-24T05:54:57.703Z,96080.44
2022-11-24T05:57:28.367Z,96086.50
2022-11-24T06:00:01.444Z,96097.72
2022-11-24T06:02:32.469Z,96095.72
2022-11-24T06:05:02.980Z,96088.50
2022-11-24T06:07:33.584Z,96090.66
2022-11-24T06:10:04.185Z,96100.72
2022-11-24T06:12:36.378Z,96093.31
2022-11-24T06:15:11.752Z,96101.09
2022-11-24T06:17:42.829Z,96106.72
2022-11-24T06:20:14.583Z,96099.16
2022-11-24T06:22:45.074Z,96110.03
2022-11-24T06:25:16.415Z,96115.16
2022-11-24T06:27:47.000Z,96118.44
2022-11-24T06:30:20.698Z,96127.00
2022-11-24T06:32:51.182Z,96131.44
2022-11-24T06:35:21.598Z,96133.13
2022-11-24T06:37:52.136Z,96136.41
2022-11-24T06:40:22.682Z,96139.69
2022-11-24T06:42:54.464Z,96151.75
2022-11-24T06:45:27.662Z,96151.25
2022-11-24T06:47:58.664Z,96159.50
2022-11-24T06:50:33.442Z,96163.81
2022-11-24T06:53:04.355Z,96167.50
2022-11-24T06:55:34.794Z,96184.16
2022-11-24T06:58:05.390Z,96183.69
2022-11-24T07:00:39.742Z,96192.78
2022-11-24T07:03:10.311Z,96203.31
2022-11-24T07:05:40.890Z,96208.09
2022-11-24T07:08:16.284Z,96214.16
2022-11-24T07:10:48.611Z,96214.25
2022-11-24T07:13:19.220Z,96217.16
2022-11-24T07:15:52.268Z,96226.16
2022-11-24T07:18:22.783Z,96228.19
2022-11-24T07:20:55.229Z,96234.03
2022-11-24T07:23:25.781Z,96230.81
2022-11-24T07:25:56.930Z,96230.56
2022-11-24T07:28:27.583Z,96237.34
2022-11-24T07:31:00.800Z,96241.16
2022-11-24T07:33:31.283Z,96245.88
2022-11-24T07:36:03.169Z,96263.63
2022-11-24T07:38:34.589Z,96263.84
2022-11-24T07:41:05.473Z,96272.47
2022-11-24T07:43:37.545Z,96274.81
2022-11-24T07:46:14.410Z,96276.53
2022-11-24T07:48:45.216Z,96288.44
2022-11-24T07:51:16.080Z,96287.47
2022-11-24T07:53:47.082Z,96296.72
2022-11-24T07:56:17.590Z,96293.09
2022-11-24T07:58:52.652Z,96299.75
2022-11-24T08:01:26.180Z,96306.53
2022-11-24T08:03:57.014Z,96301.75
2022-11-24T08:06:35.439Z,96312.69
2022-11-24T08:09:09.080Z,96310.38
2022-11-24T08:11:39.651Z,96312.19
2022-11-24T08:14:10.278Z,96325.22
2022-11-24T08:16:43.574Z,96330.53
2022-11-24T08:19:14.660Z,96334.66
2022-11-24T08:21:45.115Z,96338.78
2022-11-24T08:24:16.568Z,96340.78
2022-11-24T08:26:47.046Z,96341.41
2022-11-24T08:29:17.607Z,96341.41
2022-11-24T08:31:50.970Z,96349.19
2022-11-24T08:34:21.445Z,96345.22
2022-11-24T08:36:51.934Z,96351.97
2022-11-24T08:39:22.507Z,96360.38
2022-11-24T08:41:54.950Z,96364.50
2022-11-24T08:44:25.975Z,96374.75
2022-11-24T08:46:59.824Z,96370.78
2022-11-24T08:49:30.648Z,96369.78
2022-11-24T08:52:01.409Z,96373.09
2022-11-24T08:54:32.412Z,96362.16
2022-11-24T08:57:03.041Z,96362.84
2022-11-24T08:59:33.675Z,96370.44
2022-11-24T09:02:06.818Z,96369.59
2022-11-24T09:04:38.716Z,96378.19
2022-11-24T09:07:09.515Z,96376.53
2022-11-24T09:09:40.203Z,96389.94
2022-11-24T09:12:14.648Z,96392.56
2022-11-24T09:14:45.500Z,96401.34
2022-11-24T09:17:18.682Z,96397.72
2022-11-24T09:19:50.009Z,96393.41
2022-11-24T09:22:20.732Z,96392.41
2022-11-24T09:24:51.363Z,96386.97
2022-11-24T09:27:21.994Z,96389.59
2022-11-24T09:29:52.553Z,96391.25
2022-11-24T09:32:26.094Z,96382.34
2022-11-24T09:34:56.553Z,96384.47
2022-11-24T09:37:32.471Z,96384.94
2022-11-24T09:40:03.282Z,96377.66
2022-11-24T09:42:40.801Z,96380.97
2022-11-24T09:45:35.394Z,96387.41
2022-11-24T09:48:18.040Z,96387.41
2022-11-24T09:50:51.516Z,96380.31
2022-11-24T09:53:31.925Z,96379.47
2022-11-24T09:56:06.631Z,96384.94
2022-11-24T09:58:43.346Z,96375.34
2022-11-24T10:01:19.734Z,96382.28
2022-11-24T10:03:54.254Z,96378.16
2022-11-24T10:06:30.822Z,96378.34
2022-11-24T10:09:21.376Z,96371.41
2022-11-24T10:12:01.684Z,96375.69
2022-11-24T10:15:05.094Z,96362.47
2022-11-24T10:17:51.822Z,96363.28
2022-11-24T10:20:31.913Z,96363.94
2022-11-24T10:23:20.409Z,96364.78
2022-11-24T10:25:57.548Z,96367.25
2022-11-24T10:28:35.293Z,96367.91
2022-11-24T10:31:23.191Z,96365.44
2022-11-24T10:33:53.972Z,96369.38
2022-11-24T10:36:37.038Z,96372.00
2022-11-24T10:39:16.532Z,96375.34
2022-11-24T10:41:54.466Z,96364.75
2022-11-24T10:44:28.016Z,96365.59
2022-11-24T10:46:58.723Z,96363.91
2022-11-24T10:49:33.532Z,96364.75
2022-11-24T10:52:14.769Z,96363.09
2022-11-24T10:54:58.904Z,96358.63
2022-11-24T10:57:34.560Z,96354.00
2022-11-24T11:00:08.539Z,96356.47
2022-11-24T11:02:41.251Z,96366.22
2022-11-24T11:05:38.252Z,96364.41
2022-11-24T11:08:26.738Z,96366.88
2022-11-24T11:11:16.181Z,96364.88
2022-11-24T11:14:03.570Z,96357.13
2022-11-24T11:16:39.022Z,96360.44
2022-11-24T11:19:55.418Z,96356.13
2022-11-24T11:22:27.767Z,96355.94
2022-11-24T11:25:17.784Z,96361.72
2022-11-24T11:27:48.476Z,96361.06
2022-11-24T11:36:18.898Z,96352.97
2022-11-24T11:38:50.892Z,96364.34
2022-11-24T11:41:29.395Z,96367.00
2022-11-24T11:44:12.072Z,96363.72
2022-11-24T11:46:42.728Z,96362.06
2022-11-24T11:49:15.414Z,96354.13
2022-11-24T11:51:59.421Z,96362.88
2022-11-24T11:54:41.280Z,96362.06
2022-11-24T11:57:25.630Z,96360.44
2022-11-24T12:00:10.956Z,96368.38
2022-11-24T12:03:08.570Z,96364.72
2022-11-24T12:05:50.781Z,96373.47
2022-11-24T12:09:03.235Z,96373.13
2022-11-24T12:11:37.208Z,96377.41
2022-11-24T12:14:25.444Z,96377.09
2022-11-24T12:17:05.190Z,96363.72
2022-11-24T12:19:48.620Z,96374.91
2022-11-24T12:22:28.069Z,96376.59
2022-11-24T12:25:03.617Z,96368.44
2022-11-24T12:27:47.431Z,96377.06
2022-11-24T12:30:22.899Z,96370.13
2022-11-24T12:33:16.710Z,96364.81
2022-11-24T12:35:49.598Z,96372.94
2022-11-24T12:38:38.965Z,96371.28
2022-11-24T12:41:43.451Z,96378.22
2022-11-24T12:44:25.100Z,96376.38
2022-11-24T12:47:08.913Z,96384.84
2022-11-24T12:49:51.693Z,96376.72
2022-11-24T12:52:29.041Z,96381.66
2022-11-24T12:55:01.332Z,96377.19
2022-11-24T12:57:39.084Z,96387.78
2022-11-24T13:00:19.729Z,96387.78
2022-11-24T13:03:08.556Z,96390.28
2022-11-24T13:05:49.147Z,96389.44
2022-11-24T13:08:19.768Z,96389.44
2022-11-24T13:10:58.226Z,96398.03
2022-11-24T13:13:51.140Z,96394.38
2022-11-24T13:16:53.228Z,96392.53
2022-11-24T13:19:20.058Z,96387.44
2022-11-24T13:22:06.499Z,96386.63
2022-11-24T13:24:39.348Z,96397.38
2022-11-24T13:27:30.640Z,96397.38
2022-11-24T13:30:01.384Z,96405.31
2022-11-24T13:32:50.207Z,96405.47
2022-11-24T13:35:23.432Z,96409.31
2022-11-24T13:37:57.811Z,96403.53
2022-11-24T13:41:12.949Z,96401.06
2022-11-24T13:43:37.714Z,96410.34
2022-11-24T13:46:08.301Z,96406.22
2022-11-24T13:49:04.104Z,96398.59
2022-11-24T13:51:37.325Z,96399.59
2022-11-24T13:54:14.022Z,96404.91
2022-11-24T13:56:44.514Z,96400.78
2022-11-24T13:59:30.490Z,96414.84
2022-11-24T14:02:01.178Z,96406.06
2022-11-24T14:04:43.435Z,96408.72
2022-11-24T14:07:18.273Z,96412.38
2022-11-24T14:09:51.075Z,96402.59
2022-11-24T14:12:26.921Z,96402.59
2022-11-24T14:15:15.779Z,96401.78
2022-11-24T14:17:46.249Z,96397.47
2022-11-24T14:20:25.234Z,96402.78
2022-11-24T14:22:58.378Z,96400.13
2022-11-24T14:25:32.939Z,96397.47
2022-11-24T14:28:03.527Z,96405.41
2022-11-24T14:30:34.074Z,96412.38
2022-11-24T14:33:06.758Z,96415.00
2022-11-24T14:35:38.750Z,96415.81
2022-11-24T14:38:15.096Z,96413.38
2022-11-24T14:40:48.420Z,96419.78
2022-11-24T14:43:25.206Z,96421.16
2022-11-24T14:45:58.921Z,96428.59
2022-11-24T14:48:32.283Z,96425.31
2022-11-24T14:51:15.841Z,96433.41
2022-11-24T14:53:52.540Z,96431.75
2022-11-24T14:56:28.467Z,96432.56
2022-11-24T14:59:00.480Z,96430.09
2022-11-24T15:01:36.472Z,96439.84
2022-11-24T15:04:38.894Z,96438.03
2022-11-24T15:07:18.171Z,96444.31
2022-11-24T15:10:54.208Z,96443.50
2022-11-24T15:17:34.125Z,96455.72
2022-11-24T15:20:11.229Z,96461.66
2022-11-24T15:22:44.564Z,96459.84
2022-11-24T15:25:41.571Z,96467.97
2022-11-24T15:28:12.176Z,96467.97
2022-11-24T15:30:42.757Z,96471.97
2022-11-24T15:33:18.543Z,96472.78
2022-11-24T15:35:49.342Z,96487.38
2022-11-24T15:38:20.382Z,96486.84
2022-11-24T15:40:55.342Z,96488.78
2022-11-24T15:43:32.201Z,96499.19
2022-11-24T15:46:03.989Z,96489.97
2022-11-24T15:48:34.739Z,96496.59
2022-11-24T15:51:08.447Z,96489.50
2022-11-24T15:53:42.675Z,96492.97
2022-11-24T15:56:26.595Z,96495.75
2022-11-24T15:58:57.223Z,96499.47
2022-11-24T16:01:33.250Z,96493.38
2022-11-24T16:04:04.080Z,96501.19
2022-11-24T16:06:37.949Z,96503.66
2022-11-24T16:09:08.658Z,96514.06
2022-11-24T16:11:41.906Z,96509.94
2022-11-24T16:14:12.479Z,96509.94
2022-11-24T16:16:43.236Z,96509.72
2022-11-24T16:19:16.059Z,96507.09
2022-11-24T16:21:46.769Z,96509.31
2022-11-24T16:24:17.350Z,96506.72
2022-11-24T16:26:50.606Z,96506.41
2022-11-24T16:29:23.845Z,96501.13
2022-11-24T16:31:55.220Z,96500.63
2022-11-24T16:34:25.983Z,96503.72
2022-11-24T16:36:56.620Z,96507.09
2022-11-24T16:39:27.321Z,96505.16
2022-11-24T16:45:22.356Z,96504.97
2022-11-24T16:47:53.207Z,96513.66
2022-11-24T16:50:23.945Z,96512.31
2022-11-24T16:52:54.579Z,96504.09
2022-11-24T16:55:25.466Z,96506.78
2022-11-24T16:57:56.366Z,96489.22
2022-11-24T17:00:29.928Z,96500.09
2022-11-24T17:03:00.750Z,96507.03
2022-11-24T17:05:31.450Z,96514.09
2022-11-24T17:08:02.554Z,96505.25
2022-11-24T17:10:34.169Z,96502.03
2022-11-24T17:13:05.869Z,96509.81
2022-11-24T17:15:46.192Z,96507.84
2022-11-24T17:18:26.835Z,96513.16
2022-11-24T17:21:05.972Z,96522.63
2022-11-24T17:23:40.063Z,96517.47
2022-11-24T17:26:13.692Z,96521.97
2022-11-24T17:28:44.997Z,96515.06
2022-11-24T17:31:23.259Z,96527.69
2022-11-24T17:33:55.527Z,96530.31
2022-11-24T17:36:26.498Z,96522.44
2022-11-24T17:38:58.360Z,96525.06
2022-11-24T17:41:28.950Z,96525.19
2022-11-24T17:43:59.737Z,96521.38
2022-11-24T17:46:34.151Z,96518.47
2022-11-24T17:49:04.782Z,96511.22
2022-11-24T17:51:35.622Z,96512.28
2022-11-24T17:54:31.261Z,96522.13
2022-11-24T17:56:56.842Z,96520.06
2022-11-24T17:59:28.578Z,96516.63
2022-11-24T18:02:02.121Z,96522.44
2022-11-24T18:04:34.118Z,96525.06
2022-11-24T18:07:05.603Z,96507.72
2022-11-24T18:09:37.295Z,96509.81
2022-11-24T18:12:08.817Z,96513.72
2022-11-24T18:14:39.818Z,96505.22
2022-11-24T18:17:13.524Z,96518.66
2022-11-24T18:19:44.834Z,96515.50
2022-11-24T18:23:26.709Z,96518.13
2022-11-24T18:25:58.310Z,96511.69
2022-11-24T18:28:29.745Z,96518.75
2022-11-24T18:31:04.921Z,96518.31
2022-11-24T18:33:36.020Z,96524.47
2022-11-24T18:36:07.680Z,96527.69
2022-11-24T18:40:28.905Z,96524.00
2022-11-24T18:42:59.363Z,96527.56
2022-11-24T18:45:30.283Z,96537.47
2022-11-24T18:48:00.978Z,96533.16
2022-11-24T18:50:31.537Z,96536.25
2022-11-24T18:53:02.611Z,96545.56
2022-11-24T18:55:35.763Z,96539.09
2022-11-24T18:58:06.327Z,96528.44
2022-11-24T19:00:37.179Z,96527.47
2022-11-24T19:03:07.781Z,96535.38
2022-11-24T19:05:38.602Z,96530.25
2022-11-24T19:08:09.332Z,96529.69
2022-11-24T19:10:45.470Z,96534.44
2022-11-24T19:13:16.704Z,96528.75
2022-11-24T19:15:48.794Z,96531.16
2022-11-24T19:18:19.557Z,96528.38
2022-11-24T19:20:50.253Z,96539.50
2022-11-24T19:23:21.455Z,96538.56
2022-11-24T19:25:54.809Z,96539.44
2022-11-24T19:28:25.449Z,96540.47
2022-11-24T19:30:56.410Z,96537.50
2022-11-24T19:33:26.971Z,96549.06
2022-11-24T19:36:03.769Z,96556.69
2022-11-24T19:38:35.074Z,96554.19
2022-11-24T19:41:10.872Z,96548.91
2022-11-24T19:43:42.486Z,96540.63
2022-11-24T19:46:15.648Z,96538.91
2022-11-24T19:48:48.913Z,96545.72
2022-11-24T19:51:21.280Z,96542.63
2022-11-24T19:53:51.763Z,96549.34
2022-11-24T19:56:27.785Z,96549.84
2022-11-24T19:58:59.161Z,96555.47
2022-11-24T20:01:31.188Z,96558.19
2022-11-24T20:04:04.161Z,96546.81
2022-11-24T20:06:36.923Z,96554.13
2022-11-24T20:09:10.044Z,96556.75
2022-11-24T20:11:43.744Z,96554.38
2022-11-24T20:14:15.760Z,96561.84
2022-11-24T20:16:48.064Z,96551.09
2022-11-24T20:19:20.403Z,96562.53
2022-11-24T20:21:52.061Z,96564.50
2022-11-24T20:24:24.056Z,96558.19
2022-11-24T20:27:00.408Z,96555.16
2022-11-24T20:29:33.971Z,96557.19
2022-11-24T20:32:06.312Z,96556.22
2022-11-24T20:34:37.769Z,96556.34
2022-11-24T20:37:13.748Z,96555.00
2022-11-24T20:39:47.381Z,96555.19
2022-11-24T20:42:20.593Z,96559.50
2022-11-24T20:44:51.329Z,96566.34
2022-11-24T20:47:22.193Z,96564.13
2022-11-24T20:49:52.817Z,96578.09
2022-11-24T20:52:23.387Z,96571.38
2022-11-24T20:54:54.077Z,96572.19
2022-11-24T20:57:27.407Z,96563.41
2022-11-24T20:59:58.092Z,96570.25
2022-11-24T21:02:29.004Z,96570.94
2022-11-24T21:04:59.705Z,96571.66
2022-11-24T21:07:30.382Z,96565.78
2022-11-24T21:10:01.124Z,96567.88
2022-11-24T21:12:35.067Z,96570.56
2022-11-24T21:15:07.863Z,96568.25
2022-11-24T21:17:39.387Z,96571.81
2022-11-24T21:20:11.698Z,96571.81
2022-11-24T21:22:42.360Z,96572.66
2022-11-24T21:25:13.185Z,96563.00
2022-11-24T21:27:46.425Z,96569.25
2022-11-24T21:30:17.733Z,96575.28
2022-11-24T21:32:48.505Z,96576.88
2022-11-24T21:35:19.709Z,96567.75
2022-11-24T21:37:50.897Z,96575.72
2022-11-24T21:40:21.804Z,96578.00
2022-11-24T21:42:54.979Z,96584.50
2022-11-24T21:45:25.655Z,96580.56
2022-11-24T21:47:56.214Z,96586.44
2022-11-24T21:50:26.802Z,96594.41
2022-11-24T21:53:02.140Z,96579.88
2022-11-24T21:55:35.341Z,96589.44
2022-11-24T21:58:08.986Z,96598.25
2022-11-24T22:00:39.682Z,96588.22
2022-11-24T22:03:10.305Z,96588.84
2022-11-24T22:05:40.806Z,96591.72
2022-11-24T22:08:11.313Z,96594.28
2022-11-24T22:10:41.984Z,96584.50
2022-11-24T22:13:15.192Z,96592.06
2022-11-24T22:15:46.030Z,96592.41
2022-11-24T22:18:16.627Z,96593.97
2022-11-24T22:20:47.366Z,96593.91
2022-11-24T22:23:17.973Z,96585.03
2022-11-24T22:25:48.611Z,96587.41
2022-11-24T22:28:21.761Z,96593.06
2022-11-24T22:30:52.464Z,96591.25
2022-11-24T22:33:23.315Z,96589.06
2022-11-24T22:35:59.993Z,96587.56
2022-11-24T22:38:31.533Z,96597.06
2022-11-24T22:41:06.077Z,96593.56
2022-11-24T22:43:40.327Z,96597.94
2022-11-24T22:46:12.396Z,96597.25
2022-11-24T22:48:44.237Z,96601.84
2022-11-24T22:51:16.457Z,96595.97
2022-11-24T22:53:50.522Z,96598.72
2022-11-24T22:56:21.757Z,96594.19
2022-11-24T22:58:55.007Z,96599.47
2022-11-24T23:01:27.045Z,96600.06
2022-11-24T23:03:57.845Z,96597.47
2022-11-24T23:06:30.060Z,96601.22
2022-11-24T23:09:02.295Z,96598.88
2022-11-24T23:11:37.650Z,96601.16
2022-11-24T23:14:15.395Z,96591.69
2022-11-24T23:16:46.559Z,96607.41
2022-11-24T23:19:17.096Z,96600.88
2022-11-24T23:21:47.750Z,96606.50
2022-11-24T23:24:18.414Z,96607.09
2022-11-24T23:26:49.087Z,96614.97
2022-11-24T23:29:22.506Z,96614.38
2022-11-24T23:31:53.304Z,96610.94
2022-11-24T23:34:24.306Z,96616.94
2022-11-24T23:36:54.898Z,96614.22
2022-11-24T23:39:25.428Z,96625.72
2022-11-24T23:41:55.895Z,96624.13
2022-11-24T23:44:30.480Z,96627.34
2022-11-24T23:47:01.039Z,96638.50
2022-11-24T23:49:32.869Z,96626.53
2022-11-24T23:52:03.500Z,96621.50
2022-11-24T23:54:34.222Z,96647.28
2022-11-24T23:57:05.021Z,96640.53
2022-11-24T23:59:38.161Z,96654.63
